Time;durP1;ratioP1;P1;durP2;ratioP2;P2;SDS_P1;SDS_P2;PMS_P1;PMS_P2;Temp;Humidity;BMP_temperature;BMP_pressure;BME280_temperature;BME280_humidity;BME280_pressure;Samples;Min_cycle;Max_cycle;Signal;HPM_P1;HPM_P2
2023/01/17 00:00:28;;;;;;;10.65;4.53;;;-0.70;99.90;;;;;;5052595;28;20064;-56
2023/01/17 00:02:55;;;;;;;8.10;4.53;;;-0.60;99.90;;;;;;5055673;28;20515;-55
2023/01/17 00:11:12;;;;;;;7.03;4.45;;;-0.60;99.90;;;;;;5053617;28;20037;-57
2023/01/17 00:13:39;;;;;;;8.75;4.65;;;-0.60;99.90;;;;;;5057027;28;20053;-55
2023/01/17 00:16:06;;;;;;;7.55;4.82;;;-0.60;99.90;;;;;;5056588;28;20047;-54
2023/01/17 00:18:33;;;;;;;9.68;4.43;;;-0.70;99.90;;;;;;5056470;28;20117;-51
2023/01/17 00:26:31;;;;;;;8.70;4.70;;;-0.70;99.90;;;;;;5055005;28;20075;-53
2023/01/17 01:35:46;;;;;;;9.02;6.30;;;-1.10;99.90;;;;;;5055121;28;20048;-54
2023/01/17 01:38:12;;;;;;;9.93;6.20;;;-1.10;99.90;;;;;;5053645;28;20048;-56
2023/01/17 01:40:39;;;;;;;7.78;5.47;;;-1.10;99.90;;;;;;5054962;28;20091;-49
2023/01/17 01:43:06;;;;;;;9.75;5.68;;;-1.20;99.90;;;;;;5055082;28;20435;-54
2023/01/17 01:45:33;;;;;;;10.27;6.13;;;-1.20;99.90;;;;;;5055094;28;20507;-55
2023/01/17 01:47:59;;;;;;;10.15;5.93;;;-1.10;99.90;;;;;;5054789;28;20049;-55
2023/01/17 01:50:26;;;;;;;9.20;5.50;;;-1.10;99.90;;;;;;5054623;28;20456;-57
2023/01/17 01:52:53;;;;;;;9.05;6.13;;;-1.20;99.90;;;;;;5054674;28;20124;-52
2023/01/17 01:55:19;;;;;;;10.23;5.78;;;-1.20;99.90;;;;;;5054761;28;20075;-54
2023/01/17 01:57:46;;;;;;;8.55;5.85;;;-1.20;99.90;;;;;;5054466;28;20049;-51
2023/01/17 02:00:13;;;;;;;10.52;6.10;;;-1.20;99.90;;;;;;5054290;28;20068;-55
2023/01/17 02:02:40;;;;;;;9.23;5.97;;;-1.30;99.90;;;;;;5054823;28;20041;-56
2023/01/17 02:05:07;;;;;;;11.43;6.40;;;-1.30;99.90;;;;;;5054868;28;20045;-54
2023/01/17 02:07:33;;;;;;;9.85;6.22;;;-1.20;99.90;;;;;;5054349;28;20060;-56
2023/01/17 02:10:00;;;;;;;9.30;6.10;;;-1.20;99.90;;;;;;5054156;28;20052;-52
2023/01/17 02:12:27;;;;;;;9.68;6.85;;;-1.20;99.90;;;;;;5054062;28;20447;-57
2023/01/17 02:14:54;;;;;;;8.73;6.18;;;-1.20;99.90;;;;;;5054596;28;20480;-55
2023/01/17 02:17:21;;;;;;;7.78;5.22;;;-1.30;99.90;;;;;;5053388;28;20473;-56
2023/01/17 02:19:47;;;;;;;9.27;5.32;;;-1.30;99.90;;;;;;5053106;28;20033;-56
2023/01/17 02:22:14;;;;;;;7.30;4.32;;;-1.30;99.90;;;;;;5054073;28;20462;-53
2023/01/17 02:24:41;;;;;;;10.52;4.55;;;-1.30;99.90;;;;;;5053590;28;20042;-55
2023/01/17 02:27:08;;;;;;;7.60;4.22;;;-1.40;99.90;;;;;;5053974;28;20116;-52
2023/01/17 02:29:34;;;;;;;6.57;4.05;;;-1.40;99.90;;;;;;5052794;28;20492;-52
2023/01/17 02:32:02;;;;;;;6.95;3.88;;;-1.40;99.90;;;;;;5054219;28;20049;-53
2023/01/17 02:34:28;;;;;;;6.85;3.72;;;-1.40;99.90;;;;;;5053790;28;20053;-52
2023/01/17 02:36:56;;;;;;;7.50;4.47;;;-1.40;99.90;;;;;;5054137;28;20120;-54
2023/01/17 02:39:23;;;;;;;10.68;4.63;;;-1.50;99.90;;;;;;5053769;28;20519;-54
2023/01/17 02:41:50;;;;;;;6.45;3.90;;;-1.50;99.90;;;;;;5052898;28;20480;-56
2023/01/17 02:44:16;;;;;;;6.50;4.05;;;-1.50;99.90;;;;;;5054092;28;20041;-52
2023/01/17 02:46:43;;;;;;;6.18;3.95;;;-1.50;99.90;;;;;;5053748;28;20457;-55
2023/01/17 02:49:10;;;;;;;6.20;3.67;;;-1.40;99.90;;;;;;5054002;28;20102;-52
2023/01/17 02:51:37;;;;;;;6.07;3.72;;;-1.50;99.90;;;;;;5053907;28;20052;-55
2023/01/17 02:54:04;;;;;;;6.55;4.15;;;-1.50;99.90;;;;;;5053795;28;20131;-55
2023/01/17 02:56:31;;;;;;;8.25;3.95;;;-1.50;99.90;;;;;;5053318;28;20052;-53
2023/01/17 02:58:58;;;;;;;7.95;4.68;;;-1.60;99.90;;;;;;5053231;28;20433;-52
2023/01/17 03:01:25;;;;;;;7.68;4.78;;;-1.60;99.90;;;;;;5053770;28;20033;-54
2023/01/17 03:03:52;;;;;;;6.13;4.55;;;-1.60;99.90;;;;;;5053402;28;20094;-54
2023/01/17 03:06:18;;;;;;;9.23;5.72;;;-1.60;99.90;;;;;;5053552;28;20504;-53
2023/01/17 03:08:45;;;;;;;10.32;5.30;;;-1.60;99.90;;;;;;5053526;28;20041;-51
2023/01/17 03:11:12;;;;;;;9.55;5.20;;;-1.60;99.90;;;;;;5053569;28;20044;-52
2023/01/17 03:13:40;;;;;;;7.38;4.93;;;-1.60;99.90;;;;;;5053327;28;20053;-51
2023/01/17 03:16:06;;;;;;;8.77;4.60;;;-1.60;99.90;;;;;;5053731;28;20045;-55
2023/01/17 03:18:33;;;;;;;8.27;5.20;;;-1.60;99.90;;;;;;5052265;28;20461;-53
2023/01/17 03:21:00;;;;;;;8.10;4.95;;;-1.60;99.90;;;;;;5053455;28;20434;-55
2023/01/17 03:23:27;;;;;;;6.75;4.72;;;-1.60;99.90;;;;;;5052290;28;20549;-52
2023/01/17 03:25:54;;;;;;;7.40;4.97;;;-1.60;99.90;;;;;;5053467;28;20136;-53
2023/01/17 03:28:20;;;;;;;8.73;5.50;;;-1.50;99.90;;;;;;5053253;28;20523;-54
2023/01/17 03:30:47;;;;;;;10.82;4.60;;;-1.50;99.90;;;;;;5052009;28;20404;-54
2023/01/17 03:33:14;;;;;;;7.25;4.55;;;-1.50;99.90;;;;;;5053032;28;20045;-52
2023/01/17 03:35:41;;;;;;;7.97;4.65;;;-1.50;99.90;;;;;;5054724;28;20384;-55
2023/01/17 03:38:07;;;;;;;8.43;4.68;;;-1.50;99.90;;;;;;5057330;28;20076;-50
2023/01/17 03:40:34;;;;;;;6.45;4.65;;;-1.50;99.90;;;;;;5056202;28;20064;-56
2023/01/17 03:43:01;;;;;;;8.25;4.78;;;-1.50;99.90;;;;;;5057140;28;20098;-51
2023/01/17 03:45:27;;;;;;;7.18;4.65;;;-1.50;99.90;;;;;;5057384;28;20103;-51
2023/01/17 03:47:56;;;;;;;9.10;4.70;;;-1.60;99.90;;;;;;5055669;28;20396;-56
2023/01/17 03:50:23;;;;;;;7.28;4.60;;;-1.60;99.90;;;;;;5056857;28;20049;-53
2023/01/17 03:52:50;;;;;;;8.48;4.72;;;-1.60;99.90;;;;;;5057103;28;20045;-53
2023/01/17 03:55:16;;;;;;;7.10;4.70;;;-1.60;99.90;;;;;;5056685;28;20492;-57
2023/01/17 03:57:43;;;;;;;7.30;4.47;;;-1.60;99.90;;;;;;5057107;28;20076;-54
2023/01/17 04:00:10;;;;;;;8.77;4.60;;;-1.60;99.90;;;;;;5057100;28;20432;-55
2023/01/17 04:02:36;;;;;;;8.15;4.80;;;-1.70;99.90;;;;;;5056901;28;20451;-56
2023/01/17 04:05:04;;;;;;;7.68;4.20;;;-1.70;99.90;;;;;;5056939;28;20072;-53
2023/01/17 04:07:30;;;;;;;7.00;4.40;;;-1.70;99.90;;;;;;5056417;28;20548;-52
2023/01/17 04:09:57;;;;;;;6.75;4.57;;;-1.70;99.90;;;;;;5056687;28;20045;-54
2023/01/17 04:12:24;;;;;;;9.70;4.65;;;-1.70;99.90;;;;;;5056488;28;20115;-56
2023/01/17 04:14:50;;;;;;;6.53;4.65;;;-1.70;99.90;;;;;;5056767;28;20454;-55
2023/01/17 04:17:17;;;;;;;5.97;4.32;;;-1.70;99.90;;;;;;5056117;28;20044;-56
2023/01/17 04:19:44;;;;;;;8.20;4.53;;;-1.70;99.90;;;;;;5056509;28;20059;-48
2023/01/17 04:22:11;;;;;;;7.05;4.55;;;-1.70;99.90;;;;;;5056321;28;20048;-49
2023/01/17 04:24:37;;;;;;;6.60;4.35;;;-1.70;99.90;;;;;;5056288;28;20124;-48
2023/01/17 04:27:04;;;;;;;9.00;5.05;;;-1.70;99.90;;;;;;5056501;28;20041;-55
2023/01/17 04:29:31;;;;;;;7.03;4.47;;;-1.70;99.90;;;;;;5056260;28;20072;-50
2023/01/17 04:31:57;;;;;;;5.78;4.38;;;-1.70;99.90;;;;;;5056404;28;20045;-52
2023/01/17 04:34:25;;;;;;;7.35;4.47;;;-1.70;99.90;;;;;;5056069;28;20051;-51
2023/01/17 04:36:51;;;;;;;6.15;3.90;;;-1.70;99.90;;;;;;5056208;28;20041;-48
2023/01/17 04:39:18;;;;;;;7.35;4.50;;;-1.70;99.90;;;;;;5055946;28;20553;-51
2023/01/17 04:41:45;;;;;;;9.18;4.22;;;-1.80;99.90;;;;;;5056035;28;21161;-53
2023/01/17 04:44:12;;;;;;;6.57;4.10;;;-1.80;99.90;;;;;;5056067;28;20037;-51
2023/01/17 04:46:38;;;;;;;7.88;4.53;;;-1.80;99.90;;;;;;5055888;28;20435;-52
2023/01/17 04:49:05;;;;;;;7.85;4.50;;;-1.80;99.90;;;;;;5055772;28;20099;-53
2023/01/17 04:51:32;;;;;;;7.30;4.68;;;-1.90;99.90;;;;;;5055767;28;20400;-53
2023/01/17 04:53:58;;;;;;;5.70;4.13;;;-1.90;99.90;;;;;;5055801;28;20077;-49
2023/01/17 04:56:25;;;;;;;5.88;4.03;;;-1.90;99.90;;;;;;5055538;28;20063;-50
2023/01/17 04:58:52;;;;;;;5.13;3.67;;;-1.90;99.90;;;;;;5055649;28;20111;-52
2023/01/17 05:01:19;;;;;;;5.22;3.42;;;-2.00;99.90;;;;;;5055580;28;20045;-50
2023/01/17 05:03:45;;;;;;;6.30;3.20;;;-2.00;99.90;;;;;;5055594;28;20155;-49
2023/01/17 05:06:12;;;;;;;5.75;3.40;;;-2.00;99.90;;;;;;5055539;28;20086;-52
2023/01/17 05:08:39;;;;;;;6.78;3.78;;;-2.10;99.90;;;;;;5055390;28;20045;-50
2023/01/17 05:11:06;;;;;;;5.18;3.28;;;-2.10;99.90;;;;;;5055202;28;20095;-52
2023/01/17 05:13:32;;;;;;;6.47;2.97;;;-2.10;99.90;;;;;;5055240;28;20053;-50
2023/01/17 05:15:59;;;;;;;6.97;3.35;;;-2.10;99.90;;;;;;5055784;28;20033;-49
2023/01/17 05:18:26;;;;;;;5.68;3.15;;;-2.10;99.90;;;;;;5055233;28;20044;-50
2023/01/17 05:20:53;;;;;;;7.38;3.70;;;-2.10;99.90;;;;;;5054536;28;20118;-52
2023/01/17 05:23:19;;;;;;;5.97;3.45;;;-2.20;99.90;;;;;;5055509;28;20045;-52
2023/01/17 05:25:46;;;;;;;5.43;3.40;;;-2.20;99.90;;;;;;5055178;28;20464;-52
2023/01/17 05:28:13;;;;;;;5.60;3.40;;;-2.30;99.90;;;;;;5054956;28;20051;-53
2023/01/17 05:30:40;;;;;;;5.88;3.30;;;-2.30;99.90;;;;;;5053796;28;20053;-52
2023/01/17 05:33:08;;;;;;;6.03;3.80;;;-2.20;99.90;;;;;;5055184;28;20500;-53
2023/01/17 05:35:35;;;;;;;7.10;4.25;;;-2.30;99.90;;;;;;5055169;28;20127;-52
2023/01/17 05:38:02;;;;;;;8.23;4.55;;;-2.20;99.90;;;;;;5054944;28;20485;-52
2023/01/17 05:40:29;;;;;;;9.70;4.75;;;-2.20;99.90;;;;;;5055172;28;20508;-56
2023/01/17 05:42:56;;;;;;;10.35;4.60;;;-2.20;99.90;;;;;;5054911;28;20045;-54
2023/01/17 05:45:23;;;;;;;8.68;4.15;;;-2.20;99.90;;;;;;5054785;28;20037;-50
2023/01/17 05:47:49;;;;;;;8.98;4.45;;;-2.30;99.90;;;;;;5054813;28;20103;-54
2023/01/17 05:50:16;;;;;;;8.43;4.28;;;-2.30;99.90;;;;;;5054698;28;20087;-51
2023/01/17 05:52:43;;;;;;;5.90;4.07;;;-2.30;99.90;;;;;;5054787;28;20127;-52
2023/01/17 05:55:10;;;;;;;6.45;3.95;;;-2.30;99.90;;;;;;5054630;28;20098;-50
2023/01/17 05:57:36;;;;;;;8.70;4.32;;;-2.30;99.90;;;;;;5054721;28;20457;-54
2023/01/17 06:00:03;;;;;;;7.75;3.92;;;-2.30;99.90;;;;;;5052264;28;20077;-55
2023/01/17 06:02:30;;;;;;;5.75;4.18;;;-2.30;99.90;;;;;;5054798;28;20041;-53
2023/01/17 06:04:57;;;;;;;6.30;4.00;;;-2.30;99.90;;;;;;5054630;28;20419;-50
2023/01/17 06:07:23;;;;;;;9.32;5.07;;;-2.30;99.90;;;;;;5054789;28;20106;-54
2023/01/17 06:09:50;;;;;;;10.93;4.75;;;-2.40;99.90;;;;;;5054828;28;20037;-55
2023/01/17 06:12:17;;;;;;;8.00;4.75;;;-2.30;99.90;;;;;;5054213;28;20072;-51
2023/01/17 06:14:44;;;;;;;7.07;4.55;;;-2.30;99.90;;;;;;5054688;28;20100;-51
2023/01/17 06:17:10;;;;;;;6.60;4.00;;;-2.40;99.90;;;;;;5054394;28;20098;-51
2023/01/17 06:19:37;;;;;;;6.20;3.92;;;-2.40;99.90;;;;;;5054209;28;20140;-54
2023/01/17 06:22:04;;;;;;;6.03;3.50;;;-2.40;99.90;;;;;;5054268;28;20037;-54
2023/01/17 06:24:30;;;;;;;5.53;3.42;;;-2.30;99.90;;;;;;5054438;28;20069;-51
2023/01/17 06:26:57;;;;;;;7.32;3.70;;;-2.30;99.90;;;;;;5054342;28;20128;-56
2023/01/17 06:29:24;;;;;;;5.13;3.58;;;-2.30;99.90;;;;;;5053969;28;20041;-51
2023/01/17 06:31:50;;;;;;;6.70;4.03;;;-2.40;99.90;;;;;;5054178;28;20114;-54
2023/01/17 06:34:17;;;;;;;8.07;4.50;;;-2.40;99.90;;;;;;5054096;28;20451;-53
2023/01/17 06:36:44;;;;;;;8.15;4.72;;;-2.40;99.90;;;;;;5054095;28;20103;-52
2023/01/17 06:39:11;;;;;;;8.98;5.40;;;-2.40;99.90;;;;;;5052530;28;20037;-53
2023/01/17 06:41:40;;;;;;;10.82;4.88;;;-2.50;99.90;;;;;;5052714;28;20056;-52
2023/01/17 06:44:07;;;;;;;7.93;5.72;;;-2.50;99.90;;;;;;5054264;28;20033;-53
2023/01/17 06:46:34;;;;;;;9.77;5.40;;;-2.50;99.90;;;;;;5054006;28;20041;-52
2023/01/17 06:49:00;;;;;;;10.77;5.28;;;-2.50;99.90;;;;;;5052839;28;20040;-52
2023/01/17 06:51:27;;;;;;;9.07;5.40;;;-2.50;99.90;;;;;;5053625;28;20468;-51
2023/01/17 06:53:54;;;;;;;7.60;5.68;;;-2.50;99.90;;;;;;5053641;28;20111;-54
2023/01/17 06:56:21;;;;;;;9.75;5.40;;;-2.50;99.90;;;;;;5053478;28;20435;-52
2023/01/17 06:58:47;;;;;;;7.93;5.10;;;-2.50;99.90;;;;;;5053584;28;20099;-50
2023/01/17 07:01:14;;;;;;;7.22;5.45;;;-2.60;99.90;;;;;;5053789;28;20158;-55
2023/01/17 07:03:41;;;;;;;11.98;6.20;;;-2.60;99.90;;;;;;5053631;28;20045;-52
2023/01/17 07:06:08;;;;;;;7.28;5.15;;;-2.60;99.90;;;;;;5052140;28;20040;-52
2023/01/17 07:08:35;;;;;;;8.32;5.47;;;-2.60;99.90;;;;;;5053742;28;20040;-52
2023/01/17 07:11:01;;;;;;;13.13;5.25;;;-2.60;99.90;;;;;;5053336;28;20041;-54
2023/01/17 07:13:29;;;;;;;7.93;4.85;;;-2.60;99.90;;;;;;5052382;28;20476;-53
2023/01/17 07:15:56;;;;;;;11.50;4.40;;;-2.60;99.90;;;;;;5053488;28;20041;-53
2023/01/17 07:18:23;;;;;;;6.53;4.43;;;-2.60;99.90;;;;;;5053593;28;20048;-51
2023/01/17 07:20:49;;;;;;;7.07;4.32;;;-2.60;99.90;;;;;;5053378;28;20048;-53
2023/01/17 07:23:16;;;;;;;8.73;4.80;;;-2.60;99.90;;;;;;5053523;28;20071;-55
2023/01/17 07:25:43;;;;;;;8.35;4.72;;;-2.60;99.90;;;;;;5053599;28;20425;-55
2023/01/17 07:28:09;;;;;;;9.05;5.30;;;-2.60;99.90;;;;;;5053693;28;20037;-50
2023/01/17 07:30:36;;;;;;;8.30;4.95;;;-2.70;99.90;;;;;;5053495;28;20474;-53
2023/01/17 07:33:03;;;;;;;8.07;5.22;;;-2.70;99.90;;;;;;5053422;28;20040;-54
2023/01/17 07:35:30;;;;;;;10.55;6.25;;;-2.60;99.90;;;;;;5053204;28;20132;-51
2023/01/17 07:37:56;;;;;;;11.88;6.07;;;-2.70;99.90;;;;;;5053671;28;20540;-52
2023/01/17 07:40:24;;;;;;;8.38;5.40;;;-2.70;99.90;;;;;;5053025;28;20033;-50
2023/01/17 07:42:50;;;;;;;8.55;5.35;;;-2.60;99.90;;;;;;5053638;28;20040;-54
2023/01/17 07:45:18;;;;;;;11.05;5.72;;;-2.70;99.90;;;;;;5053171;28;20431;-50
2023/01/17 07:47:45;;;;;;;10.63;5.47;;;-2.60;99.90;;;;;;5053099;28;20107;-52
2023/01/17 07:50:12;;;;;;;8.57;5.30;;;-2.60;99.90;;;;;;5053512;28;20041;-54
2023/01/17 07:52:39;;;;;;;12.13;5.80;;;-2.50;99.90;;;;;;5053467;28;20167;-48
2023/01/17 07:55:06;;;;;;;8.68;6.28;;;-2.60;99.90;;;;;;5053079;28;20064;-51
2023/01/17 07:57:32;;;;;;;10.63;5.85;;;-2.50;99.90;;;;;;5052882;28;20064;-52
2023/01/17 07:59:59;;;;;;;13.60;7.00;;;-2.60;99.90;;;;;;5053224;28;20094;-50
2023/01/17 08:02:26;;;;;;;10.48;5.43;;;-2.60;99.90;;;;;;5052936;28;20049;-53
2023/01/17 08:04:53;;;;;;;10.32;6.22;;;-2.60;99.90;;;;;;5052479;28;20079;-50
2023/01/17 08:07:20;;;;;;;8.45;5.20;;;-2.60;99.90;;;;;;5051666;28;20057;-52
2023/01/17 08:09:48;;;;;;;11.38;6.10;;;-2.60;99.90;;;;;;5052272;28;20045;-54
2023/01/17 08:12:15;;;;;;;8.95;5.55;;;-2.70;99.90;;;;;;5053059;28;20084;-54
2023/01/17 08:14:42;;;;;;;11.60;6.55;;;-2.70;99.90;;;;;;5053014;28;20092;-52
2023/01/17 08:17:09;;;;;;;11.43;6.68;;;-2.70;99.90;;;;;;5052789;28;20052;-56
2023/01/17 08:19:35;;;;;;;13.93;8.13;;;-2.70;99.90;;;;;;5052507;28;20088;-54
2023/01/17 08:22:02;;;;;;;9.35;6.22;;;-2.70;99.90;;;;;;5053070;28;20045;-52
2023/01/17 08:24:29;;;;;;;11.45;6.32;;;-2.70;99.90;;;;;;5055820;28;20029;-53
2023/01/17 08:26:56;;;;;;;13.13;6.75;;;-2.60;99.90;;;;;;5054993;28;20045;-53
2023/01/17 08:29:22;;;;;;;11.27;6.50;;;-2.60;99.90;;;;;;5054754;28;20045;-51
2023/01/17 08:31:49;;;;;;;12.00;6.25;;;-2.50;99.90;;;;;;5054508;28;20053;-54
2023/01/17 08:34:16;;;;;;;11.23;7.13;;;-2.50;99.90;;;;;;5054504;28;20120;-51
2023/01/17 08:36:43;;;;;;;9.82;6.57;;;-2.50;99.90;;;;;;5054803;28;20041;-51
2023/01/17 08:39:13;;;;;;;10.73;5.72;;;-2.50;99.90;;;;;;5055245;28;20095;-56
2023/01/17 08:41:40;;;;;;;8.52;6.22;;;-2.50;99.90;;;;;;5056029;28;20465;-53
2023/01/17 08:44:06;;;;;;;10.65;6.65;;;-2.40;99.90;;;;;;5056235;28;20471;-50
2023/01/17 08:46:33;;;;;;;13.55;6.38;;;-2.40;99.90;;;;;;5056233;28;20464;-55
2023/01/17 08:49:01;;;;;;;10.98;6.13;;;-2.40;99.90;;;;;;5055979;28;20056;-54
2023/01/17 08:51:28;;;;;;;13.02;6.55;;;-2.30;99.90;;;;;;5056053;28;20057;-52
2023/01/17 08:53:55;;;;;;;9.85;6.63;;;-2.30;99.90;;;;;;5056117;28;20049;-51
2023/01/17 08:56:26;;;;;;;10.90;6.18;;;-2.30;99.90;;;;;;5054399;28;20511;-50
2023/01/17 08:58:52;;;;;;;11.00;6.45;;;-2.30;99.90;;;;;;5055895;28;20048;-53
2023/01/17 09:01:19;;;;;;;11.88;6.70;;;-2.20;99.90;;;;;;5056282;28;20472;-53
2023/01/17 09:03:46;;;;;;;8.35;5.70;;;-2.20;99.90;;;;;;5056154;28;20065;-53
2023/01/17 09:06:13;;;;;;;16.83;9.52;;;-2.10;99.90;;;;;;5055739;28;20041;-52
2023/01/17 09:08:40;;;;;;;13.35;6.72;;;-2.10;99.90;;;;;;5055666;28;20041;-53
2023/01/17 09:11:06;;;;;;;11.68;6.45;;;-2.10;99.90;;;;;;5055627;28;20530;-50
2023/01/17 09:13:33;;;;;;;17.42;9.13;;;-2.10;99.90;;;;;;5055516;28;20491;-47
2023/01/17 09:16:00;;;;;;;12.50;6.70;;;-2.00;99.90;;;;;;5055559;28;20041;-51
2023/01/17 09:18:27;;;;;;;10.95;6.32;;;-2.00;99.90;;;;;;5055377;28;20045;-53
2023/01/17 09:20:54;;;;;;;11.27;6.30;;;-2.00;99.90;;;;;;5055303;28;20041;-55
2023/01/17 09:23:20;;;;;;;9.85;5.63;;;-2.00;99.90;;;;;;5055484;28;20045;-52
2023/01/17 09:25:47;;;;;;;9.60;5.10;;;-2.00;99.90;;;;;;5055168;28;20489;-53
2023/01/17 09:28:14;;;;;;;8.73;5.53;;;-1.90;99.90;;;;;;5055491;28;20045;-53
2023/01/17 09:30:41;;;;;;;9.73;5.90;;;-1.90;99.90;;;;;;5055526;28;20049;-50
2023/01/17 09:33:07;;;;;;;7.65;4.88;;;-1.80;99.90;;;;;;5055134;28;20048;-54
2023/01/17 09:35:34;;;;;;;9.18;6.03;;;-1.80;99.90;;;;;;5054967;28;20044;-50
2023/01/17 09:38:01;;;;;;;11.93;5.65;;;-1.80;99.90;;;;;;5055108;28;20508;-53
2023/01/17 09:40:28;;;;;;;9.68;6.10;;;-1.70;99.90;;;;;;5055029;28;20041;-52
2023/01/17 09:42:56;;;;;;;10.00;6.32;;;-1.70;99.90;;;;;;5054776;28;20041;-54
2023/01/17 09:45:24;;;;;;;12.93;5.78;;;-1.70;99.90;;;;;;5055283;28;20037;-50
2023/01/17 09:47:51;;;;;;;11.70;6.20;;;-1.70;99.90;;;;;;5055060;28;20090;-50
2023/01/17 09:50:18;;;;;;;10.70;6.45;;;-1.60;99.90;;;;;;5055376;28;20102;-51
2023/01/17 09:52:44;;;;;;;12.05;6.00;;;-1.60;99.90;;;;;;5055088;28;20129;-53
2023/01/17 09:55:11;;;;;;;9.88;5.95;;;-1.50;99.90;;;;;;5054963;28;20049;-56
2023/01/17 09:57:38;;;;;;;10.63;6.03;;;-1.60;99.90;;;;;;5054946;28;20098;-54
2023/01/17 10:00:05;;;;;;;9.32;5.90;;;-1.60;99.90;;;;;;5055102;28;20417;-54
2023/01/17 10:02:32;;;;;;;12.48;5.95;;;-1.60;99.90;;;;;;5055078;28;20427;-50
2023/01/17 10:04:59;;;;;;;13.68;6.25;;;-1.50;99.90;;;;;;5054673;28;20420;-55
2023/01/17 10:07:25;;;;;;;14.38;6.60;;;-1.50;99.90;;;;;;5054763;28;20045;-52
2023/01/17 10:09:52;;;;;;;12.48;4.80;;;-1.40;99.90;;;;;;5054576;28;20455;-54
2023/01/17 10:12:19;;;;;;;8.38;5.20;;;-1.30;99.90;;;;;;5054525;28;20126;-51
2023/01/17 10:14:45;;;;;;;9.30;4.47;;;-1.20;99.90;;;;;;5054367;28;20477;-49
2023/01/17 10:17:14;;;;;;;14.00;4.97;;;-1.20;99.90;;;;;;5054738;28;20090;-50
2023/01/17 10:19:41;;;;;;;10.98;4.70;;;-1.20;99.90;;;;;;5054380;28;20479;-53
2023/01/17 10:22:09;;;;;;;8.77;4.60;;;-1.20;99.90;;;;;;5054019;28;20041;-52
2023/01/17 10:24:35;;;;;;;10.13;4.30;;;-1.20;99.90;;;;;;5052885;28;20045;-51
2023/01/17 10:27:02;;;;;;;7.60;4.25;;;-1.10;99.90;;;;;;5053959;28;20049;-49
2023/01/17 10:29:29;;;;;;;8.18;4.90;;;-1.20;99.90;;;;;;5054494;28;20037;-51
2023/01/17 10:31:56;;;;;;;7.97;4.78;;;-1.10;99.90;;;;;;5052691;28;20508;-55
2023/01/17 10:34:22;;;;;;;10.43;6.03;;;-1.10;99.90;;;;;;5054269;28;20041;-52
2023/01/17 10:36:49;;;;;;;9.23;5.80;;;-1.00;99.90;;;;;;5053932;28;20106;-55
2023/01/17 10:39:16;;;;;;;8.10;5.40;;;-1.00;99.90;;;;;;5053838;28;20049;-53
2023/01/17 10:41:43;;;;;;;11.43;6.03;;;-0.90;99.90;;;;;;5054217;28;20095;-54
2023/01/17 10:44:09;;;;;;;13.10;5.78;;;-0.90;99.90;;;;;;5053919;28;20430;-53
2023/01/17 10:46:36;;;;;;;9.13;5.78;;;-0.90;99.90;;;;;;5053102;28;20224;-51
2023/01/17 10:49:03;;;;;;;12.38;6.13;;;-0.80;99.90;;;;;;5054196;28;20464;-53
2023/01/17 10:51:29;;;;;;;9.00;5.97;;;-0.90;99.90;;;;;;5054027;28;20086;-54
2023/01/17 10:53:56;;;;;;;10.13;6.00;;;-0.80;99.90;;;;;;5053997;28;20079;-53
2023/01/17 10:56:24;;;;;;;13.32;6.82;;;-0.80;99.90;;;;;;5053457;28;20491;-54
2023/01/17 10:58:51;;;;;;;11.80;6.45;;;-0.80;99.90;;;;;;5053934;28;20059;-51
2023/01/17 11:01:18;;;;;;;16.88;7.72;;;-0.80;99.90;;;;;;5053974;28;20041;-51
2023/01/17 11:03:45;;;;;;;18.05;9.18;;;-0.70;99.90;;;;;;5053809;28;20045;-48
2023/01/17 11:06:12;;;;;;;14.23;8.50;;;-0.80;99.90;;;;;;5053819;28;20456;-50
2023/01/17 11:08:39;;;;;;;13.00;7.53;;;-0.80;99.90;;;;;;5053724;28;20033;-49
2023/01/17 11:11:06;;;;;;;14.13;7.90;;;-0.70;99.90;;;;;;5053592;28;20095;-52
2023/01/17 11:13:36;;;;;;;16.30;7.90;;;-0.60;99.90;;;;;;5053639;28;20053;-50
2023/01/17 11:16:04;;;;;;;15.48;7.75;;;-0.50;99.90;;;;;;5053322;28;20072;-52
2023/01/17 11:18:31;;;;;;;12.90;7.72;;;-0.50;99.90;;;;;;5053643;28;20099;-51
2023/01/17 11:20:59;;;;;;;13.95;8.45;;;-0.60;99.90;;;;;;5053646;28;20041;-50
2023/01/17 11:23:26;;;;;;;13.88;8.95;;;-0.50;99.90;;;;;;5053378;28;20092;-52
2023/01/17 11:25:53;;;;;;;18.65;10.73;;;-0.50;99.90;;;;;;5052002;28;20060;-50
2023/01/17 11:28:20;;;;;;;17.13;10.77;;;-0.50;99.90;;;;;;5053174;28;20037;-52
2023/01/17 11:30:47;;;;;;;21.42;9.88;;;-0.50;99.90;;;;;;5053327;28;20045;-51
2023/01/17 11:33:14;;;;;;;16.20;9.80;;;-0.50;99.90;;;;;;5053303;28;20045;-52
2023/01/17 11:35:40;;;;;;;18.30;9.98;;;-0.40;99.90;;;;;;5053297;28;20071;-48
2023/01/17 11:38:07;;;;;;;18.67;10.88;;;-0.40;99.90;;;;;;5053786;28;20094;-55
2023/01/17 11:40:34;;;;;;;19.13;11.07;;;-0.40;99.90;;;;;;5051881;28;20037;-49
2023/01/17 11:43:01;;;;;;;21.77;11.82;;;-0.30;99.90;;;;;;5053215;28;20037;-48
2023/01/17 11:45:27;;;;;;;16.13;10.65;;;-0.30;99.90;;;;;;5053656;28;20068;-53
2023/01/17 11:47:54;;;;;;;16.30;9.93;;;-0.20;99.90;;;;;;5053067;28;20041;-55
2023/01/17 11:50:21;;;;;;;25.42;9.38;;;-0.10;99.90;;;;;;5053258;28;20045;-53
2023/01/17 11:52:48;;;;;;;14.75;9.63;;;0.00;99.90;;;;;;5053230;28;20037;-51
2023/01/17 11:55:14;;;;;;;19.98;9.88;;;0.00;99.90;;;;;;5053427;28;20093;-50
2023/01/17 11:57:41;;;;;;;14.73;9.65;;;0.10;99.90;;;;;;5054483;28;20049;-50
2023/01/17 12:00:08;;;;;;;16.00;9.90;;;0.20;99.90;;;;;;5057015;28;20048;-48
2023/01/17 12:02:37;;;;;;;12.98;9.00;;;0.20;99.90;;;;;;5057015;28;20546;-51
2023/01/17 12:05:04;;;;;;;15.85;9.45;;;0.30;99.90;;;;;;5056887;28;20037;-51
2023/01/17 12:07:30;;;;;;;16.88;9.73;;;0.40;99.90;;;;;;5056729;28;20079;-52
2023/01/17 12:09:57;;;;;;;15.60;10.27;;;0.40;99.90;;;;;;5056846;28;20087;-54
2023/01/17 12:15:10;;;;;;;23.02;10.85;;;0.50;99.90;;;;;;5056911;28;20045;-56
2023/01/17 12:17:36;;;;;;;17.40;10.48;;;0.50;99.90;;;;;;5056289;28;20115;-52
2023/01/17 12:20:10;;;;;;;17.02;9.70;;;0.50;99.90;;;;;;5056305;28;20052;-50
2023/01/17 12:22:37;;;;;;;15.73;9.75;;;0.60;99.90;;;;;;5056073;28;20536;-55
2023/01/17 12:25:03;;;;;;;16.35;9.43;;;0.60;99.90;;;;;;5056557;28;20040;-56
2023/01/17 12:27:30;;;;;;;17.42;9.80;;;0.60;99.90;;;;;;5056011;28;20044;-54
2023/01/17 12:29:57;;;;;;;19.75;10.05;;;0.60;99.90;;;;;;5056141;28;20041;-55
2023/01/17 12:32:24;;;;;;;18.15;9.25;;;0.70;99.90;;;;;;5056220;28;20048;-55
2023/01/17 12:34:51;;;;;;;18.00;9.25;;;0.70;99.90;;;;;;5055980;28;20049;-55
2023/01/17 12:37:18;;;;;;;12.75;7.93;;;0.70;99.90;;;;;;5056068;28;20045;-50
2023/01/17 12:39:44;;;;;;;21.40;8.65;;;0.70;99.90;;;;;;5054756;28;20041;-56
2023/01/17 12:42:12;;;;;;;16.27;8.68;;;0.70;99.90;;;;;;5056101;28;20029;-54
2023/01/17 12:44:39;;;;;;;16.65;8.35;;;0.70;99.90;;;;;;5055977;28;20098;-51
2023/01/17 12:47:06;;;;;;;16.13;7.97;;;0.70;99.90;;;;;;5056019;28;20476;-53
2023/01/17 12:49:32;;;;;;;14.93;8.45;;;0.70;99.90;;;;;;5056003;28;20537;-55
2023/01/17 12:51:59;;;;;;;13.15;8.13;;;0.70;99.90;;;;;;5055697;28;20056;-51
2023/01/17 12:54:26;;;;;;;12.43;6.55;;;0.70;99.90;;;;;;5055741;28;20045;-50
2023/01/17 12:56:53;;;;;;;14.35;7.32;;;0.80;99.90;;;;;;5055992;28;20127;-49
2023/01/17 12:59:19;;;;;;;14.80;8.00;;;0.70;99.90;;;;;;5054243;28;20083;-51
2023/01/17 13:01:55;;;;;;;14.65;9.23;;;0.70;99.90;;;;;;5055299;28;20044;-52
2023/01/17 13:04:23;;;;;;;13.18;8.88;;;0.70;99.90;;;;;;5055471;28;20040;-48
2023/01/17 13:06:49;;;;;;;19.05;8.77;;;0.70;99.90;;;;;;5055293;28;20495;-49
2023/01/17 13:09:16;;;;;;;12.02;8.60;;;0.70;99.90;;;;;;5054906;28;20086;-49
2023/01/17 13:11:45;;;;;;;18.13;8.57;;;0.80;99.90;;;;;;5055225;28;20198;-51
2023/01/17 13:14:12;;;;;;;12.02;8.57;;;0.80;99.90;;;;;;5055421;28;20094;-53
2023/01/17 13:16:38;;;;;;;13.57;8.75;;;0.80;99.90;;;;;;5055555;28;20045;-52
2023/01/17 13:19:07;;;;;;;18.50;10.38;;;0.80;99.90;;;;;;5055073;28;20048;-52
2023/01/17 13:21:34;;;;;;;20.00;8.55;;;0.80;99.90;;;;;;5055077;28;20377;-52
2023/01/17 13:24:01;;;;;;;15.77;8.50;;;0.90;99.90;;;;;;5055051;28;20048;-47
2023/01/17 13:26:28;;;;;;;11.70;7.68;;;0.90;99.90;;;;;;5055103;28;20098;-53
2023/01/17 13:28:55;;;;;;;17.48;8.60;;;0.90;99.90;;;;;;5055111;28;20048;-52
2023/01/17 13:31:21;;;;;;;17.23;8.52;;;1.00;99.90;;;;;;5054973;28;20052;-51
2023/01/17 13:33:48;;;;;;;16.75;8.65;;;1.00;99.90;;;;;;5054966;28;20037;-55
2023/01/17 13:36:15;;;;;;;13.75;8.38;;;1.00;99.90;;;;;;5055053;28;20420;-52
2023/01/17 13:38:42;;;;;;;12.30;7.68;;;1.00;99.90;;;;;;5055206;28;20415;-50
2023/01/17 13:41:09;;;;;;;15.93;9.68;;;1.00;99.90;;;;;;5055175;28;20128;-55
2023/01/17 13:43:35;;;;;;;15.57;8.95;;;1.10;99.90;;;;;;5055317;28;20076;-55
2023/01/17 13:46:02;;;;;;;14.38;8.77;;;1.10;99.90;;;;;;5054926;28;20048;-53
2023/01/17 13:48:29;;;;;;;14.00;8.70;;;1.10;99.90;;;;;;5052900;28;20048;-54
2023/01/17 13:50:56;;;;;;;16.77;9.50;;;1.10;99.90;;;;;;5036775;28;20140;-53
2023/01/17 13:53:23;;;;;;;19.17;9.68;;;1.10;99.90;;;;;;5053572;28;20553;-51
2023/01/17 13:55:49;;;;;;;21.98;9.65;;;1.10;99.90;;;;;;5054737;28;20503;-50
2023/01/17 13:58:17;;;;;;;17.77;9.73;;;1.10;99.90;;;;;;5054996;28;20087;-52
2023/01/17 14:00:43;;;;;;;20.13;10.30;;;1.10;99.90;;;;;;5054933;28;20041;-51